createdAt,value
2023-04-29T00:00:04.366Z,53.31
2023-04-29T00:02:58.110Z,53.30
2023-04-29T00:05:24.707Z,53.59
2023-04-29T00:07:51.229Z,53.79
2023-04-29T00:10:17.675Z,53.70
2023-04-29T00:12:44.055Z,53.67
2023-04-29T00:15:10.493Z,53.78
2023-04-29T00:17:37.146Z,54.02
2023-04-29T00:20:04.805Z,54.26
2023-04-29T00:22:31.247Z,54.68
2023-04-29T00:24:57.679Z,55.19
2023-04-29T00:27:24.436Z,55.70
2023-04-29T00:29:51.766Z,55.83
2023-04-29T00:32:18.383Z,55.52
2023-04-29T00:34:44.872Z,55.85
2023-04-29T00:37:11.248Z,55.46
2023-04-29T00:39:40.047Z,55.09
2023-04-29T00:42:06.696Z,55.66
2023-04-29T00:44:33.014Z,55.95
2023-04-29T00:46:59.360Z,56.14
2023-04-29T00:49:25.920Z,56.33
2023-04-29T00:51:52.931Z,56.55
2023-04-29T00:54:19.437Z,56.46
2023-04-29T00:56:45.993Z,56.56
2023-04-29T00:59:12.605Z,56.69
2023-04-29T01:01:39.175Z,56.89
2023-04-29T01:04:06.021Z,56.81
2023-04-29T01:06:40.269Z,56.77
2023-04-29T01:09:22.351Z,56.70
2023-04-29T01:12:05.493Z,56.91
2023-04-29T01:14:32.920Z,57.14
2023-04-29T01:17:02.420Z,56.95
2023-04-29T01:19:38.137Z,57.38
2023-04-29T01:22:07.426Z,57.59
2023-04-29T01:24:34.884Z,57.57
2023-04-29T01:27:27.738Z,57.41
2023-04-29T01:30:07.119Z,57.47
2023-04-29T01:32:41.080Z,57.50
2023-04-29T01:35:10.524Z,57.49
2023-04-29T01:37:36.971Z,57.68
2023-04-29T01:40:19.031Z,57.60
2023-04-29T01:43:04.497Z,57.46
2023-04-29T01:45:33.552Z,57.63
2023-04-29T01:48:00.062Z,57.76
2023-04-29T01:50:26.963Z,58.12
2023-04-29T01:52:55.372Z,58.16
2023-04-29T01:55:21.830Z,58.08
2023-04-29T01:57:56.244Z,58.10
2023-04-29T02:00:55.202Z,58.06
2023-04-29T02:03:21.815Z,58.07
2023-04-29T02:05:51.491Z,57.85
2023-04-29T02:08:17.930Z,58.34
2023-04-29T02:10:51.742Z,58.42
2023-04-29T02:13:44.064Z,58.25
2023-04-29T02:16:12.025Z,58.45
2023-04-29T02:18:42.102Z,58.42
2023-04-29T02:21:08.994Z,58.12
2023-04-29T02:23:35.869Z,58.03
2023-04-29T02:26:02.170Z,58.03
2023-04-29T02:28:28.707Z,58.27
2023-04-29T02:30:54.984Z,58.27
2023-04-29T02:33:21.319Z,58.24
2023-04-29T02:35:47.666Z,58.34
2023-04-29T02:38:16.093Z,58.30
2023-04-29T02:40:42.819Z,58.38
2023-04-29T02:43:09.115Z,58.54
2023-04-29T02:45:35.677Z,58.55
2023-04-29T02:48:02.099Z,58.44
2023-04-29T02:50:28.523Z,58.43
2023-04-29T02:52:55.042Z,58.57
2023-04-29T02:55:21.305Z,58.62
2023-04-29T02:57:47.640Z,58.65
2023-04-29T03:00:14.162Z,58.86
2023-04-29T03:02:40.700Z,59.08
2023-04-29T03:05:07.468Z,59.18
2023-04-29T03:07:34.073Z,59.08
2023-04-29T03:10:00.429Z,59.25
2023-04-29T03:12:26.786Z,59.11
2023-04-29T03:14:53.110Z,59.34
2023-04-29T03:17:19.427Z,59.53
2023-04-29T03:19:45.882Z,59.51
2023-04-29T03:22:13.408Z,59.69
2023-04-29T03:24:41.342Z,59.88
2023-04-29T03:27:07.819Z,60.05
2023-04-29T03:29:34.424Z,60.17
2023-04-29T03:32:00.978Z,60.43
2023-04-29T03:34:27.621Z,60.44
2023-04-29T03:37:12.611Z,60.29
2023-04-29T03:39:41.001Z,60.10
2023-04-29T03:42:07.342Z,59.96
2023-04-29T03:44:33.733Z,59.72
2023-04-29T03:47:00.026Z,59.62
2023-04-29T03:49:26.319Z,59.74
2023-04-29T03:51:52.704Z,59.97
2023-04-29T03:54:19.039Z,59.96
2023-04-29T03:56:45.978Z,59.70
2023-04-29T03:59:12.548Z,59.83
2023-04-29T04:01:40.448Z,59.83
2023-04-29T04:04:07.185Z,60.05
2023-04-29T04:06:34.881Z,59.97
2023-04-29T04:09:02.115Z,59.87
2023-04-29T04:11:30.511Z,59.84
2023-04-29T04:13:59.645Z,59.91
2023-04-29T04:16:26.080Z,59.91
2023-04-29T04:18:52.484Z,60.16
2023-04-29T04:21:18.871Z,60.48
2023-04-29T04:23:51.401Z,60.69
2023-04-29T04:26:20.834Z,60.92
2023-04-29T04:28:56.025Z,60.92
2023-04-29T04:31:30.668Z,60.94
2023-04-29T04:33:57.060Z,61.02
2023-04-29T04:36:23.623Z,61.05
2023-04-29T04:38:49.934Z,61.28
2023-04-29T04:41:16.342Z,61.61
2023-04-29T04:43:45.442Z,61.70
2023-04-29T04:46:20.623Z,61.71
2023-04-29T04:48:59.235Z,61.74
2023-04-29T04:51:27.203Z,61.79
2023-04-29T04:53:53.679Z,61.92
2023-04-29T04:56:22.548Z,61.63
2023-04-29T04:58:49.281Z,61.71
2023-04-29T05:01:15.658Z,61.81
2023-04-29T05:03:42.140Z,61.79
2023-04-29T05:06:08.786Z,61.89
2023-04-29T05:08:35.691Z,62.04
2023-04-29T05:11:02.700Z,61.94
2023-04-29T05:13:29.083Z,61.58
2023-04-29T05:15:56.050Z,61.76
2023-04-29T05:18:25.651Z,61.63
2023-04-29T05:20:52.239Z,61.90
2023-04-29T05:23:18.831Z,61.90
2023-04-29T05:25:45.898Z,61.85
2023-04-29T05:28:12.686Z,61.68
2023-04-29T05:30:40.811Z,62.12
2023-04-29T05:33:07.285Z,62.38
2023-04-29T05:35:33.687Z,62.51
2023-04-29T05:38:00.332Z,62.42
2023-04-29T05:40:34.977Z,62.67
2023-04-29T05:43:26.263Z,62.68
2023-04-29T05:45:53.268Z,63.05
2023-04-29T05:48:20.064Z,63.17
2023-04-29T05:50:46.463Z,63.09
2023-04-29T05:53:12.879Z,63.24
2023-04-29T05:55:40.828Z,63.46
2023-04-29T05:58:07.153Z,63.67
2023-04-29T06:00:33.647Z,63.98
2023-04-29T06:03:03.222Z,64.45
2023-04-29T06:05:30.213Z,64.62
2023-04-29T06:08:12.137Z,64.58
2023-04-29T06:10:44.155Z,65.04
2023-04-29T06:13:10.918Z,65.16
2023-04-29T06:15:37.445Z,65.32
2023-04-29T06:18:03.903Z,65.43
2023-04-29T06:20:30.286Z,65.67
2023-04-29T06:22:56.748Z,65.78
2023-04-29T06:25:23.052Z,65.97
2023-04-29T06:27:50.925Z,66.33
2023-04-29T06:30:20.249Z,66.67
2023-04-29T06:32:46.664Z,67.09
2023-04-29T06:35:13.050Z,67.38
2023-04-29T06:37:58.355Z,67.60
2023-04-29T06:40:43.291Z,67.58
2023-04-29T06:43:30.029Z,67.81
2023-04-29T06:46:15.141Z,67.85
2023-04-29T06:49:07.761Z,68.01
2023-04-29T06:51:34.324Z,67.93
2023-04-29T06:54:00.613Z,67.84
2023-04-29T06:56:27.010Z,68.06
2023-04-29T06:58:53.336Z,67.96
2023-04-29T07:01:19.754Z,67.83
2023-04-29T07:03:46.416Z,68.12
2023-04-29T07:06:13.029Z,68.17
2023-04-29T07:08:39.855Z,68.14
2023-04-29T07:11:06.238Z,68.49
2023-04-29T07:13:32.613Z,68.73
2023-04-29T07:15:58.966Z,68.86
2023-04-29T07:18:25.347Z,69.07
2023-04-29T07:20:51.671Z,68.85
2023-04-29T07:23:18.336Z,69.07
2023-04-29T07:25:45.642Z,69.42
2023-04-29T07:28:15.045Z,69.52
2023-04-29T07:30:41.386Z,69.53
2023-04-29T07:33:08.231Z,69.46
2023-04-29T07:35:34.646Z,69.66
2023-04-29T07:38:00.965Z,69.65
2023-04-29T07:40:27.306Z,69.62
2023-04-29T07:42:57.521Z,69.46
2023-04-29T07:45:23.829Z,69.52
2023-04-29T07:47:50.242Z,69.58
2023-04-29T07:50:16.808Z,69.72
2023-04-29T07:52:43.490Z,69.43
2023-04-29T07:55:10.412Z,69.64
2023-04-29T07:57:36.920Z,69.64
2023-04-29T08:00:04.740Z,69.48
2023-04-29T08:02:40.982Z,69.47
2023-04-29T08:05:08.589Z,69.81
2023-04-29T08:07:35.145Z,69.97
2023-04-29T08:10:01.484Z,69.93
2023-04-29T08:12:28.565Z,69.91
2023-04-29T08:14:55.104Z,69.43
2023-04-29T08:17:21.717Z,69.30
2023-04-29T08:19:48.078Z,69.58
2023-04-29T08:22:14.775Z,69.68
2023-04-29T08:24:41.096Z,69.51
2023-04-29T08:27:07.673Z,69.44
2023-04-29T08:29:33.987Z,69.58
2023-04-29T08:32:00.487Z,69.65
2023-04-29T08:34:26.980Z,69.76
2023-04-29T08:36:53.277Z,69.77
2023-04-29T08:39:19.977Z,69.60
2023-04-29T08:41:46.304Z,69.35
2023-04-29T08:44:12.787Z,69.20
2023-04-29T08:46:39.300Z,69.24
2023-04-29T08:49:06.388Z,68.74
2023-04-29T08:51:32.714Z,67.99
2023-04-29T08:53:59.211Z,68.13
2023-04-29T08:56:27.853Z,67.26
2023-04-29T08:58:56.111Z,67.25
2023-04-29T09:01:23.499Z,67.07
2023-04-29T09:03:53.488Z,66.49
2023-04-29T09:06:20.166Z,66.26
2023-04-29T09:08:46.799Z,66.31
2023-04-29T09:11:14.002Z,66.21
2023-04-29T09:13:40.350Z,66.12
2023-04-29T09:16:12.934Z,65.52
2023-04-29T09:18:43.241Z,65.73
2023-04-29T09:21:17.486Z,65.77
2023-04-29T09:23:49.441Z,66.01
2023-04-29T09:26:23.666Z,65.32
2023-04-29T09:29:16.628Z,64.54
2023-04-29T09:31:43.634Z,64.20
2023-04-29T09:34:10.484Z,63.21
2023-04-29T09:36:39.983Z,61.90
2023-04-29T09:39:10.042Z,61.34
2023-04-29T09:41:40.338Z,61.37
2023-04-29T09:44:07.662Z,61.16
2023-04-29T09:46:34.732Z,60.59
2023-04-29T09:49:03.895Z,59.93
2023-04-29T09:51:30.374Z,59.58
2023-04-29T09:53:56.819Z,59.25
2023-04-29T09:56:23.114Z,58.26
2023-04-29T09:58:49.521Z,57.57
2023-04-29T10:01:16.085Z,56.50
2023-04-29T10:03:43.240Z,54.52
2023-04-29T10:06:10.173Z,53.86
2023-04-29T10:08:36.834Z,54.06
2023-04-29T10:11:04.099Z,52.71
2023-04-29T10:13:31.320Z,52.25
2023-04-29T10:16:08.374Z,51.75
2023-04-29T10:18:35.607Z,51.50
2023-04-29T10:21:02.812Z,49.84
2023-04-29T10:23:29.980Z,48.79
2023-04-29T10:25:56.833Z,49.13
2023-04-29T10:28:23.818Z,48.31
2023-04-29T10:30:50.661Z,47.59
2023-04-29T10:33:18.290Z,47.24
2023-04-29T10:35:46.390Z,47.88
2023-04-29T10:38:18.959Z,48.06
2023-04-29T10:40:47.059Z,48.23
2023-04-29T10:43:14.109Z,48.80
2023-04-29T10:45:40.690Z,49.65
2023-04-29T10:48:10.835Z,49.93
2023-04-29T10:50:46.642Z,50.18
2023-04-29T10:53:17.343Z,50.97
2023-04-29T10:55:46.348Z,50.76
2023-04-29T10:58:36.188Z,51.13
2023-04-29T11:01:03.416Z,51.58
2023-04-29T11:03:48.958Z,51.97
2023-04-29T11:06:16.011Z,52.37
2023-04-29T11:08:42.302Z,52.69
2023-04-29T11:11:08.838Z,53.25
2023-04-29T11:13:39.039Z,53.45
2023-04-29T11:16:06.663Z,53.85
2023-04-29T11:18:34.048Z,54.25
2023-04-29T11:21:06.647Z,54.75
2023-04-29T11:23:36.884Z,54.47
2023-04-29T11:26:03.770Z,54.61
2023-04-29T11:28:30.878Z,55.07
2023-04-29T11:30:58.055Z,55.11
2023-04-29T11:33:25.019Z,55.13
2023-04-29T11:35:51.573Z,55.17
2023-04-29T11:38:23.269Z,55.50
2023-04-29T11:40:49.712Z,55.92
2023-04-29T11:43:17.160Z,56.18
2023-04-29T11:45:47.048Z,56.24
2023-04-29T11:48:25.676Z,56.67
2023-04-29T11:50:58.804Z,56.82
2023-04-29T11:53:26.246Z,57.12
2023-04-29T11:55:53.207Z,57.29
2023-04-29T11:58:23.902Z,57.52
2023-04-29T12:00:50.426Z,57.55
2023-04-29T12:03:18.433Z,58.11
2023-04-29T12:05:51.182Z,58.21
2023-04-29T12:08:24.812Z,58.29
2023-04-29T12:10:51.716Z,58.29
2023-04-29T12:13:18.928Z,58.42
2023-04-29T12:15:45.786Z,58.21
2023-04-29T12:18:12.512Z,58.35
2023-04-29T12:20:39.666Z,58.59
2023-04-29T12:23:12.883Z,59.05
2023-04-29T12:25:39.777Z,58.94
2023-04-29T12:28:12.679Z,59.04
2023-04-29T12:30:39.281Z,58.95
2023-04-29T12:33:09.110Z,58.92
2023-04-29T12:35:36.272Z,58.87
2023-04-29T12:38:02.734Z,58.55
2023-04-29T12:40:30.361Z,58.42
2023-04-29T12:42:56.826Z,58.55
2023-04-29T12:45:26.282Z,58.17
2023-04-29T12:47:52.903Z,58.18
2023-04-29T12:50:19.244Z,58.06
2023-04-29T12:52:45.756Z,57.95
2023-04-29T12:55:12.191Z,57.70
2023-04-29T12:57:38.731Z,57.30
2023-04-29T13:00:05.616Z,57.01
2023-04-29T13:02:32.493Z,56.98
2023-04-29T13:04:59.528Z,56.90
2023-04-29T13:07:26.716Z,56.99
2023-04-29T13:09:53.112Z,56.67
2023-04-29T13:12:19.736Z,56.81
2023-04-29T13:14:46.246Z,56.98
2023-04-29T13:17:12.841Z,56.85
2023-04-29T13:19:51.025Z,56.51
2023-04-29T13:22:18.491Z,56.01
2023-04-29T13:24:44.872Z,55.87
2023-04-29T13:27:11.394Z,54.32
2023-04-29T13:29:38.201Z,52.38
2023-04-29T13:32:04.775Z,49.48
2023-04-29T13:34:31.187Z,47.32
2023-04-29T13:37:00.589Z,44.72
2023-04-29T13:39:27.327Z,43.64
2023-04-29T13:41:58.758Z,42.86
2023-04-29T13:44:34.200Z,41.33
2023-04-29T13:47:06.209Z,41.13
2023-04-29T13:59:42.663Z,43.99
2023-04-29T14:02:23.997Z,44.40
2023-04-29T14:04:51.856Z,44.23
2023-04-29T14:07:18.530Z,45.29
2023-04-29T14:09:44.883Z,45.68
2023-04-29T14:12:11.313Z,46.32
2023-04-29T14:14:38.009Z,46.35
2023-04-29T14:17:04.333Z,45.88
2023-04-29T14:19:30.753Z,43.96
2023-04-29T14:21:57.367Z,44.44
2023-04-29T14:24:23.746Z,45.03
2023-04-29T14:26:50.305Z,45.68
2023-04-29T14:29:16.805Z,45.69
2023-04-29T14:31:43.160Z,46.52
2023-04-29T14:34:09.612Z,47.04
2023-04-29T14:36:36.006Z,47.51
2023-04-29T14:39:02.477Z,48.94
2023-04-29T14:41:28.941Z,49.78
2023-04-29T14:43:55.311Z,50.46
2023-04-29T14:46:21.782Z,51.25
2023-04-29T14:48:48.331Z,52.16
2023-04-29T14:51:15.019Z,52.69
2023-04-29T14:53:41.369Z,53.49
2023-04-29T14:56:07.761Z,54.88
2023-04-29T14:58:34.344Z,55.89
2023-04-29T15:01:00.714Z,57.00
2023-04-29T15:04:09.083Z,58.20
2023-04-29T15:06:40.741Z,60.08
2023-04-29T15:09:08.226Z,60.80
2023-04-29T15:11:34.593Z,61.60
2023-04-29T15:14:01.112Z,62.82
2023-04-29T15:16:28.963Z,63.89
2023-04-29T15:18:55.487Z,64.72
2023-04-29T15:21:22.366Z,65.31
2023-04-29T15:23:49.636Z,65.68
2023-04-29T15:26:16.018Z,66.08
2023-04-29T15:28:42.638Z,66.73
2023-04-29T15:31:09.670Z,67.13
2023-04-29T15:33:36.080Z,67.68
2023-04-29T15:36:02.836Z,67.88
2023-04-29T15:38:29.576Z,68.29
2023-04-29T15:40:57.363Z,68.96
2023-04-29T15:43:24.494Z,69.64
2023-04-29T15:45:51.030Z,70.20
2023-04-29T15:48:17.465Z,70.63
2023-04-29T15:50:43.909Z,70.58
2023-04-29T15:53:10.298Z,70.32
2023-04-29T15:55:36.795Z,70.12
2023-04-29T15:58:03.636Z,69.87
2023-04-29T16:00:30.281Z,70.25
2023-04-29T16:02:56.805Z,70.11
2023-04-29T16:05:23.656Z,70.24
2023-04-29T16:07:50.096Z,70.30
2023-04-29T16:10:16.497Z,70.28
2023-04-29T16:12:43.208Z,70.51
2023-04-29T16:15:10.684Z,70.58
2023-04-29T16:17:37.342Z,69.91
2023-04-29T16:20:03.974Z,68.48
2023-04-29T16:22:33.038Z,67.94
2023-04-29T16:24:59.642Z,67.39
2023-04-29T16:27:27.194Z,67.78
2023-04-29T16:29:55.506Z,68.23
2023-04-29T16:32:22.408Z,68.94
2023-04-29T16:34:48.969Z,69.41
2023-04-29T16:37:15.526Z,70.25
2023-04-29T16:39:41.996Z,70.69
2023-04-29T16:42:09.336Z,71.08
2023-04-29T16:44:35.734Z,71.89
2023-04-29T16:47:02.150Z,72.46
2023-04-29T16:49:29.572Z,72.95
2023-04-29T16:51:56.041Z,73.20
2023-04-29T16:54:22.845Z,73.63
2023-04-29T16:56:51.656Z,74.04
2023-04-29T16:59:18.281Z,74.48
2023-04-29T17:01:44.835Z,74.96
2023-04-29T17:04:13.062Z,75.55
2023-04-29T17:06:39.828Z,75.97
2023-04-29T17:09:10.720Z,76.57
2023-04-29T17:11:37.356Z,77.24
2023-04-29T17:14:03.762Z,77.77
2023-04-29T17:16:30.168Z,78.47
2023-04-29T17:18:56.817Z,79.09
2023-04-29T17:21:23.231Z,79.15
2023-04-29T17:23:49.882Z,79.47
2023-04-29T17:26:16.430Z,79.73
2023-04-29T17:28:42.781Z,79.92
2023-04-29T17:31:09.119Z,80.18
2023-04-29T17:33:35.760Z,80.29
2023-04-29T17:36:02.979Z,80.73
2023-04-29T17:38:29.795Z,80.95
2023-04-29T17:40:56.616Z,81.50
2023-04-29T17:43:24.960Z,81.91
2023-04-29T17:45:54.159Z,82.37
2023-04-29T17:48:22.753Z,82.71
2023-04-29T17:50:56.115Z,83.25
2023-04-29T17:53:22.539Z,83.67
2023-04-29T17:55:48.897Z,84.07
2023-04-29T17:58:15.540Z,84.66
2023-04-29T18:00:42.116Z,84.99
2023-04-29T18:03:08.718Z,85.34
2023-04-29T18:05:36.689Z,85.61
2023-04-29T18:08:03.440Z,86.00
2023-04-29T18:10:29.910Z,86.19
2023-04-29T18:12:56.459Z,86.64
2023-04-29T18:15:23.030Z,86.95
2023-04-29T18:17:49.434Z,87.29
2023-04-29T18:20:15.804Z,87.51
2023-04-29T18:22:43.183Z,87.94
2023-04-29T18:25:09.765Z,87.88
2023-04-29T18:27:36.219Z,87.74
2023-04-29T18:30:03.224Z,87.84
2023-04-29T18:32:29.680Z,87.89
2023-04-29T18:34:56.088Z,88.11
2023-04-29T18:37:22.648Z,88.34
2023-04-29T18:39:48.980Z,88.53
2023-04-29T18:42:15.413Z,88.84
2023-04-29T18:44:42.014Z,88.96
2023-04-29T18:47:08.447Z,89.22
2023-04-29T18:49:37.370Z,89.38
2023-04-29T18:52:04.862Z,89.46
2023-04-29T18:54:31.256Z,89.84
2023-04-29T18:56:58.178Z,89.95
2023-04-29T18:59:27.323Z,90.03
2023-04-29T19:01:54.168Z,90.09
2023-04-29T19:04:20.850Z,90.33
2023-04-29T19:06:47.469Z,90.62
2023-04-29T19:09:13.893Z,90.67
2023-04-29T19:11:40.622Z,90.61
2023-04-29T19:14:07.151Z,90.83
2023-04-29T19:16:36.285Z,90.95
2023-04-29T19:19:04.031Z,91.26
2023-04-29T19:21:31.964Z,91.38
2023-04-29T19:23:58.587Z,91.77
2023-04-29T19:26:25.453Z,91.99
2023-04-29T19:28:51.885Z,92.27
2023-04-29T19:31:18.379Z,92.33
2023-04-29T19:33:44.940Z,92.46
2023-04-29T19:36:11.532Z,92.59
2023-04-29T19:38:37.982Z,92.87
2023-04-29T19:41:04.449Z,93.05
2023-04-29T19:43:31.036Z,93.13
2023-04-29T19:45:57.501Z,93.19
2023-04-29T19:48:23.919Z,93.29
2023-04-29T19:50:50.881Z,93.29
2023-04-29T19:53:17.271Z,93.17
2023-04-29T19:55:46.360Z,93.22
2023-04-29T19:58:13.049Z,93.18
2023-04-29T20:00:39.513Z,93.74
2023-04-29T20:03:06.037Z,93.83
2023-04-29T20:05:32.846Z,93.81
2023-04-29T20:07:59.445Z,94.04
2023-04-29T20:10:28.216Z,93.89
2023-04-29T20:12:56.640Z,94.06
2023-04-29T20:15:23.141Z,94.00
2023-04-29T20:17:49.850Z,94.18
2023-04-29T20:20:16.509Z,94.32
2023-04-29T20:22:42.941Z,94.54
2023-04-29T20:25:09.384Z,94.60
2023-04-29T20:27:36.020Z,94.63
2023-04-29T20:30:02.718Z,94.81
2023-04-29T20:32:29.157Z,94.87
2023-04-29T20:34:55.649Z,94.84
2023-04-29T20:37:22.060Z,94.81
2023-04-29T20:39:48.854Z,94.96
2023-04-29T20:42:15.466Z,94.73
2023-04-29T20:44:42.060Z,94.65
2023-04-29T20:47:08.425Z,94.45
2023-04-29T20:49:37.528Z,94.90
2023-04-29T20:52:04.267Z,95.13
2023-04-29T20:54:30.612Z,94.88
2023-04-29T20:56:59.855Z,95.09
2023-04-29T20:59:27.150Z,95.28
2023-04-29T21:01:53.983Z,95.59
2023-04-29T21:04:20.560Z,95.69
2023-04-29T21:06:46.993Z,95.81
2023-04-29T21:09:13.833Z,96.20
2023-04-29T21:11:40.246Z,96.27
2023-04-29T21:14:20.962Z,96.68
2023-04-29T21:16:47.426Z,96.86
2023-04-29T21:19:16.479Z,97.02
2023-04-29T21:21:42.823Z,97.21
2023-04-29T21:24:09.356Z,97.12
2023-04-29T21:26:35.755Z,97.15
2023-04-29T21:29:02.311Z,97.32
2023-04-29T21:31:32.403Z,97.32
2023-04-29T21:33:58.949Z,97.41
2023-04-29T21:36:25.616Z,97.73
2023-04-29T21:38:52.173Z,97.89
2023-04-29T21:41:23.015Z,97.98
2023-04-29T21:43:49.891Z,98.25
2023-04-29T21:46:16.619Z,98.51
2023-04-29T21:48:43.439Z,98.60
2023-04-29T21:51:10.019Z,98.49
2023-04-29T21:53:36.708Z,98.70
2023-04-29T21:56:04.407Z,98.54
2023-04-29T21:58:30.841Z,98.80
2023-04-29T22:00:57.344Z,98.66
2023-04-29T22:03:23.865Z,98.91
2023-04-29T22:05:50.348Z,99.07
2023-04-29T22:08:16.964Z,98.95
2023-04-29T22:10:43.378Z,99.23
2023-04-29T22:13:09.927Z,99.13
2023-04-29T22:15:36.291Z,99.28
2023-04-29T22:18:02.707Z,99.28
2023-04-29T22:20:29.087Z,99.42
2023-04-29T22:22:55.617Z,99.56
2023-04-29T22:25:22.168Z,99.56
2023-04-29T22:27:49.237Z,99.69
2023-04-29T22:30:15.580Z,99.84
2023-04-29T22:32:41.978Z,99.91
2023-04-29T22:35:08.462Z,99.69
2023-04-29T22:37:34.921Z,99.97
2023-04-29T22:40:01.253Z,99.97
2023-04-29T22:42:27.599Z,100.00
2023-04-29T22:44:53.935Z,100.00
2023-04-29T22:47:20.418Z,100.00
2023-04-29T22:49:46.856Z,100.00
2023-04-29T22:52:13.339Z,100.00
2023-04-29T22:54:39.758Z,100.00
2023-04-29T22:57:06.222Z,100.00
2023-04-29T22:59:32.820Z,100.00
2023-04-29T23:01:59.265Z,100.00
2023-04-29T23:04:25.645Z,100.00
2023-04-29T23:06:52.132Z,100.00
2023-04-29T23:09:18.438Z,100.00
2023-04-29T23:11:45.043Z,100.00
2023-04-29T23:14:11.379Z,100.00
2023-04-29T23:16:37.701Z,100.00
2023-04-29T23:19:04.088Z,100.00
2023-04-29T23:21:30.474Z,100.00
2023-04-29T23:23:56.903Z,100.00
2023-04-29T23:26:23.269Z,100.00
2023-04-29T23:28:49.948Z,100.00
2023-04-29T23:31:16.317Z,100.00
2023-04-29T23:33:42.802Z,100.00
2023-04-29T23:36:09.177Z,100.00
2023-04-29T23:38:35.514Z,100.00
2023-04-29T23:41:02.031Z,100.00
2023-04-29T23:43:28.581Z,100.00
2023-04-29T23:45:55.154Z,100.00
2023-04-29T23:48:21.512Z,100.00
2023-04-29T23:50:47.845Z,100.00
2023-04-29T23:53:14.343Z,100.00
2023-04-29T23:55:40.752Z,100.00
2023-04-29T23:58:07.090Z,100.00
